Bookmark and Share
Track history (hours):
 

Nor Easter

Last reported at 2014-Apr-20 13:25 UTC. Time now 2014-Apr-20 19:08 UTC.
Position N 41°29' W 070°56'.

Length 181 m; draft 7.2 m.

Type: Ship. MMSI: 538002219.

NotesDate/timePositionNaut miles runAvg speedWind from/ knotsBaromVisibWave heightAir tempDewpointWater temp
2014-Apr-20 13:25N 41°29' W 070°56'1213.4
2014-Apr-20 12:34N 41°23' W 071°09'1313.4
2014-Apr-20 11:33N 41°18' W 071°25'1211.8
2014-Apr-20 10:33N 41°17' W 071°41'1515.4
2014-Apr-20 09:33N 41°14' W 072°01'1615.7
2014-Apr-20 08:33N 41°12' W 072°22'1413.9
2014-Apr-20 07:34N 41°11' W 072°40'1211.5
2014-Apr-20 06:33N 41°14' W 072°55'3 0.7
2014-Apr-20 02:26N 41°17' W 072°55'0 0.0
2014-Apr-19 14:17N 41°17' W 072°55'0 0.2
2014-Apr-19 13:31N 41°17' W 072°55'5 5.5
2014-Apr-19 12:34N 41°12' W 072°53'1312.8
2014-Apr-19 11:34N 41°11' W 072°36'1212.1
2014-Apr-19 10:33N 41°11' W 072°20'1111.1
2014-Apr-19 09:33N 41°14' W 072°06'1110.5
2014-Apr-19 08:33N 41°15' W 071°52'1212.4
2014-Apr-19 07:33N 41°17' W 071°36'1212.1
2014-Apr-19 06:34N 41°19' W 071°20'1212.4
2014-Apr-19 05:33N 41°24' W 071°05'1413.5
2014-Apr-19 04:33N 41°31' W 070°49'1212.3
2014-Apr-19 03:33N 41°41' W 070°40'7 6.1
2014-Apr-19 02:21N 41°46' W 070°33'5 6.4
2014-Apr-19 01:34N 41°48' W 070°27'22 7.0
2014-Apr-18 22:28N 42°09' W 070°32'8712.6
2014-Apr-18 15:33N 43°34' W 070°09'7 0.6
2014-Apr-18 03:19N 43°38' W 070°17'0 0.0
2014-Apr-17 08:26N 43°38' W 070°17'4 4.6
2014-Apr-17 07:33N 43°37' W 070°11'9 8.7
2014-Apr-17 06:33N 43°37' W 069°59'  
2014-Apr-12 06:10N 41°29' W 070°53'813.8
2014-Apr-12 05:33N 41°25' W 071°03'1413.6
2014-Apr-12 04:34N 41°26' W 071°21'1312.6
2014-Apr-12 03:33N 41°38' W 071°18'1110.8
2014-Apr-12 02:33N 41°48' W 071°23'0 0.2
2014-Apr-12 01:32N 41°48' W 071°24'0 0.0
2014-Apr-12 00:32N 41°48' W 071°24'0 0.0
2014-Apr-11 23:32N 41°48' W 071°24'0 0.0
2014-Apr-11 16:11N 41°48' W 071°24'0 0.0
2014-Apr-11 15:29N 41°48' W 071°24'0 0.0
2014-Apr-11 14:29N 41°48' W 071°24'0 0.0
2014-Apr-11 13:26N 41°48' W 071°24'0 0.0
2014-Apr-11 12:32N 41°48' W 071°24'0 0.0
2014-Apr-11 11:32N 41°48' W 071°24'1 0.6
2014-Apr-11 10:33N 41°48' W 071°23'9 8.6
2014-Apr-11 09:33N 41°40' W 071°19'1313.3
2014-Apr-11 08:33N 41°27' W 071°22'1212.0
2014-Apr-11 07:33N 41°24' W 071°07'1313.2
2014-Apr-11 06:33N 41°30' W 070°51'1312.7
2014-Apr-11 05:33N 41°40' W 070°41'11 9.0
2014-Apr-11 04:17N 41°47' W 070°28'10 8.9
2014-Apr-11 03:11N 41°57' W 070°29'2710.0
2014-Apr-11 00:26N 42°21' W 070°47'910.8
2014-Apr-10 23:33N 42°20' W 070°59'4 3.8
2014-Apr-10 22:33N 42°24' W 071°01'0 0.3
2014-Apr-10 21:27N 42°24' W 071°01'0 0.0
2014-Apr-10 20:33N 42°24' W 071°01'0 0.0
2014-Apr-10 19:33N 42°24' W 071°01'0 0.0
2014-Apr-10 18:09N 42°24' W 071°01'0 0.0
2014-Apr-10 17:33N 42°24' W 071°01'0 0.0
2014-Apr-10 16:21N 42°24' W 071°01'0 0.0
2014-Apr-10 14:27N 42°24' W 071°01'0 0.0
2014-Apr-10 13:33N 42°24' W 071°01'  

Dump ship's entire track history

sailing weather and tide predictions

Nor Easter — V7HF2 — position and weather